This is the latest recevied weather packets stored in our database for station/object WC0AA-WX. If no packets are shown the sender has not sent any weather packets the latest 10 day(s).
| Time | Temp. | Humidity | Pressure | Rain* | Wind** | Luminosity | Snow |
|---|---|---|---|---|---|---|---|
| 1777771630 | 15.56° C | 39% | 1016.5 hPa | 0 mm | - | - | - |
| 1777771029 | 16.11° C | 38% | 1016.5 hPa | 0 mm | - | - | - |
| 1777734973 | 15.56° C | 35% | 1022.2 hPa | 0 mm | - | - | - |
| 1777731367 | 12.78° C | 43% | 1022.3 hPa | 0 mm | - | - | - |
| 1777730766 | 12.22° C | 45% | 1022.2 hPa | 0 mm | - | - | - |
| 1777730166 | 12.22° C | 49% | 1022.2 hPa | 0 mm | - | - | - |
| 1777729564 | 11.11° C | 58% | 1022.2 hPa | 0 mm | - | - | - |
| 1777728964 | 9.44° C | 65% | 1022.2 hPa | 0 mm | - | - | - |
| 1777727761 | 6.67° C | 72% | 1022.1 hPa | 0 mm | - | - | - |
| 1777727161 | 8.33° C | 67% | 1022.1 hPa | 0 mm | - | - | - |
| 1777723555 | 1.11° C | 95% | 1021.6 hPa | 0 mm | - | - | - |
| 1777722954 | 0° C | 100% | 1021.5 hPa | 0 mm | - | - | - |
| 1777721752 | -1.11° C | 100% | 1021.5 hPa | 0 mm | - | - | - |
| 1777720551 | -1.67° C | 100% | 1021.3 hPa | 0 mm | - | - | - |
| 1777719949 | -1.11° C | 100% | 1021.4 hPa | 0 mm | - | - | - |
| 1777719348 | -1.11° C | 100% | 1021.3 hPa | 0 mm | - | - | - |
| 1777718146 | -0.56° C | 100% | 1021.2 hPa | 0 mm | - | - | - |
| 1777717545 | -0.56° C | 100% | 1021.1 hPa | 0 mm | - | - | - |
| 1777716943 | -0.56° C | 97% | 1021.1 hPa | 0 mm | - | - | - |
| 1777716343 | -0.56° C | 97% | 1021 hPa | 0 mm | - | - | - |
| 1777715741 | -0.56° C | 96% | 1021 hPa | 0 mm | - | - | - |
| 1777715140 | -1.11° C | 94% | 1021 hPa | 0 mm | - | - | - |
| 1777713938 | -1.11° C | 92% | 1020.9 hPa | 0 mm | - | - | - |
| 1777713337 | -0.56° C | 94% | 1020.8 hPa | 0 mm | - | - | - |
| 1777712736 | 0° C | 94% | 1020.8 hPa | 0 mm | - | - | - |
* Rain latest hour (hover to see other rain measurements)
** Current wind speed in m/s (hover to see current wind gust speed)